Terminal Aerodrome Forecast
Issued by NWS Salt Lake City, UT

Home | Current Version | Previous Version | Text Only | Print | Product List | Glossary On
Versions: 1 2 3 4 5 6 7 8 9 10 11 12 13 14 15 16 17
000
FTUS45 KSLC 250540
TAFCDC
TAF
KCDC 250540Z 2506/2606 18010KT P6SM SCT120 SCT200
     FM251500 20014G21KT P6SM SCT100 BKN150
     FM251800 21025G36KT P6SM SCT070 BKN120
     FM260300 21017KT P6SM SCT070 BKN120=

USA.gov is the U.S. government's official web portal to all federal, state and local government web resources and services.